Time;durP1;ratioP1;P1;durP2;ratioP2;P2;SDS_P1;SDS_P2;PMS_P1;PMS_P2;Temp;Humidity;BMP_temperature;BMP_pressure;BME280_temperature;BME280_humidity;BME280_pressure;Samples;Min_cycle;Max_cycle;Signal;HPM_P1;HPM_P2
2023/11/04 00:02:05;;;;;;;0.88;0.70;;;;;;;;;;4979492;28;20027;-59
2023/11/04 00:04:33;;;;;;;1.42;0.70;;;;;;;;;;4979296;28;20034;-62
2023/11/04 00:07:00;;;;;;;0.50;0.50;;;;;;;;;;4979081;28;20027;-61
2023/11/04 00:09:26;;;;;;;0.80;0.80;;;;;;;;;;4996806;28;20057;-62
2023/11/04 00:11:51;;;;;;;1.77;0.63;;;;;;;;;;4986293;28;20088;-62
2023/11/04 00:14:17;;;;;;;0.63;0.63;;;;;;;;;;4998376;28;20034;-62
2023/11/04 00:16:43;;;;;;;0.82;0.60;;;;;;;;;;5015675;28;20018;-62
2023/11/04 00:19:08;;;;;;;1.13;0.80;;;;;;;;;;5015552;28;20069;-62
2023/11/04 00:21:34;;;;;;;0.77;0.55;;;;;;;;;;5015924;28;20022;-62
2023/11/04 00:24:00;;;;;;;0.80;0.68;;;;;;;;;;4998899;28;20121;-62
2023/11/04 00:26:26;;;;;;;2.03;1.13;;;;;;;;;;5015977;28;20581;-62
2023/11/04 00:28:54;;;;;;;1.15;0.93;;;;;;;;;;4998214;28;20367;-63
2023/11/04 00:31:20;;;;;;;1.00;0.65;;;;;;;;;;4982293;28;20060;-59
2023/11/04 00:33:45;;;;;;;0.82;0.55;;;;;;;;;;5015429;28;20482;-59
2023/11/04 00:36:10;;;;;;;0.47;0.47;;;;;;;;;;5015504;28;20032;-60
2023/11/04 00:38:37;;;;;;;0.65;0.65;;;;;;;;;;4998291;28;20057;-60
2023/11/04 00:41:04;;;;;;;0.90;0.80;;;;;;;;;;4997990;28;20034;-60
2023/11/04 00:43:33;;;;;;;1.42;0.70;;;;;;;;;;4997974;28;20473;-60
2023/11/04 00:46:00;;;;;;;0.73;0.65;;;;;;;;;;5015620;28;20037;-59
2023/11/04 00:48:25;;;;;;;1.05;0.95;;;;;;;;;;5015554;28;20014;-59
2023/11/04 00:50:52;;;;;;;0.82;0.82;;;;;;;;;;4998307;28;20045;-59
2023/11/04 00:53:17;;;;;;;0.93;0.82;;;;;;;;;;4997520;28;20026;-59
2023/11/04 00:55:43;;;;;;;0.70;0.70;;;;;;;;;;5015555;28;20033;-59
2023/11/04 00:58:09;;;;;;;1.20;0.80;;;;;;;;;;5015523;28;20526;-59
2023/11/04 01:00:35;;;;;;;1.02;0.88;;;;;;;;;;4981702;28;20100;-59
2023/11/04 01:03:00;;;;;;;0.65;0.65;;;;;;;;;;5015034;28;20108;-59
2023/11/04 01:05:26;;;;;;;0.70;0.70;;;;;;;;;;4997613;28;20123;-59
2023/11/04 01:07:52;;;;;;;0.52;0.52;;;;;;;;;;5014015;28;20034;-59
2023/11/04 01:10:17;;;;;;;0.60;0.60;;;;;;;;;;4996993;28;20034;-61
2023/11/04 01:12:43;;;;;;;0.85;0.70;;;;;;;;;;4997352;28;20044;-62
2023/11/04 01:15:09;;;;;;;0.75;0.75;;;;;;;;;;4997498;28;20021;-62
2023/11/04 01:17:34;;;;;;;1.02;0.52;;;;;;;;;;4997378;28;20390;-58
2023/11/04 01:20:01;;;;;;;0.93;0.65;;;;;;;;;;5015044;28;20026;-58
2023/11/04 01:22:27;;;;;;;0.70;0.70;;;;;;;;;;4997038;28;20033;-61
2023/11/04 01:24:52;;;;;;;0.60;0.60;;;;;;;;;;4981022;28;20034;-61
2023/11/04 01:27:17;;;;;;;0.60;0.60;;;;;;;;;;5014526;28;20409;-61
2023/11/04 01:29:44;;;;;;;0.63;0.63;;;;;;;;;;4997766;28;20075;-61
2023/11/04 01:32:09;;;;;;;0.60;0.60;;;;;;;;;;4997676;28;20021;-61
2023/11/04 01:34:34;;;;;;;0.52;0.52;;;;;;;;;;5014903;28;20022;-61
2023/11/04 01:37:00;;;;;;;0.30;0.30;;;;;;;;;;4996825;28;20478;-60
2023/11/04 01:39:25;;;;;;;0.60;0.60;;;;;;;;;;5015098;28;20037;-62
2023/11/04 01:41:51;;;;;;;0.75;0.57;;;;;;;;;;5014637;28;20026;-59
2023/11/04 01:44:16;;;;;;;1.25;0.60;;;;;;;;;;4997179;28;20371;-59
2023/11/04 01:46:42;;;;;;;0.68;0.68;;;;;;;;;;4997414;28;20039;-59
2023/11/04 01:49:07;;;;;;;0.65;0.65;;;;;;;;;;4996999;28;20050;-61
2023/11/04 01:51:36;;;;;;;0.88;0.65;;;;;;;;;;5014610;28;20066;-62
2023/11/04 01:54:02;;;;;;;0.70;0.70;;;;;;;;;;5014536;28;20038;-59
2023/11/04 01:56:30;;;;;;;0.88;0.60;;;;;;;;;;4996489;28;20064;-59
2023/11/04 01:58:56;;;;;;;0.80;0.80;;;;;;;;;;4996889;28;20029;-59
2023/11/04 02:01:22;;;;;;;0.60;0.60;;;;;;;;;;4996596;28;20034;-59
2023/11/04 02:03:47;;;;;;;0.75;0.75;;;;;;;;;;4997042;28;20095;-59
2023/11/04 02:06:13;;;;;;;0.77;0.77;;;;;;;;;;5014439;28;20076;-59
2023/11/04 02:08:38;;;;;;;0.60;0.60;;;;;;;;;;5014610;28;20076;-59
2023/11/04 02:11:04;;;;;;;0.60;0.60;;;;;;;;;;4996680;28;20032;-61
2023/11/04 02:13:30;;;;;;;1.00;0.57;;;;;;;;;;4996512;28;20429;-62
2023/11/04 02:15:55;;;;;;;1.50;1.00;;;;;;;;;;5014243;28;20028;-63
2023/11/04 02:18:21;;;;;;;0.93;0.50;;;;;;;;;;4996548;28;20037;-61
2023/11/04 02:20:46;;;;;;;0.52;0.52;;;;;;;;;;5014266;28;20033;-62
2023/11/04 02:23:13;;;;;;;1.67;0.57;;;;;;;;;;5014223;28;20038;-62
2023/11/04 02:25:39;;;;;;;0.60;0.60;;;;;;;;;;5014065;28;20127;-60
2023/11/04 02:28:05;;;;;;;0.80;0.80;;;;;;;;;;4996235;28;20022;-59
2023/11/04 02:30:31;;;;;;;0.65;0.60;;;;;;;;;;4996087;28;20113;-59
2023/11/04 02:32:56;;;;;;;0.50;0.50;;;;;;;;;;5014388;28;20044;-59
2023/11/04 02:35:22;;;;;;;0.60;0.60;;;;;;;;;;5014168;28;20018;-58
2023/11/04 02:37:50;;;;;;;0.50;0.50;;;;;;;;;;5006511;28;20461;-58
2023/11/04 02:40:16;;;;;;;0.50;0.50;;;;;;;;;;4977324;28;20085;-58
2023/11/04 02:42:41;;;;;;;0.60;0.60;;;;;;;;;;4994275;28;20030;-59
2023/11/04 02:45:07;;;;;;;0.50;0.50;;;;;;;;;;4994427;28;20035;-59
2023/11/04 02:47:32;;;;;;;0.43;0.43;;;;;;;;;;4960689;28;20030;-59
2023/11/04 02:49:58;;;;;;;0.50;0.50;;;;;;;;;;4964896;28;20051;-59
2023/11/04 02:52:26;;;;;;;0.60;0.60;;;;;;;;;;4954117;29;20027;-59
2023/11/04 02:54:51;;;;;;;0.68;0.68;;;;;;;;;;4954103;29;20031;-62
2023/11/04 02:57:17;;;;;;;0.45;0.45;;;;;;;;;;4953637;29;20498;-62
2023/11/04 02:59:42;;;;;;;0.57;0.50;;;;;;;;;;4953433;29;20464;-64
2023/11/04 03:02:08;;;;;;;0.57;0.57;;;;;;;;;;4954997;29;20035;-65
2023/11/04 03:04:35;;;;;;;1.17;0.38;;;;;;;;;;4938031;29;20036;-62
2023/11/04 03:07:00;;;;;;;0.60;0.60;;;;;;;;;;4955188;29;20494;-63
2023/11/04 03:09:26;;;;;;;0.45;0.45;;;;;;;;;;4955367;29;20055;-64
2023/11/04 03:11:54;;;;;;;1.20;0.57;;;;;;;;;;4954265;29;20451;-64
2023/11/04 03:14:19;;;;;;;1.48;0.60;;;;;;;;;;4955527;29;20019;-61
2023/11/04 03:16:45;;;;;;;1.45;0.60;;;;;;;;;;4955430;29;20162;-62
2023/11/04 03:19:11;;;;;;;0.63;0.63;;;;;;;;;;4955437;29;20518;-62
2023/11/04 03:21:36;;;;;;;0.57;0.57;;;;;;;;;;4954766;29;20443;-62
2023/11/04 03:24:02;;;;;;;0.70;0.60;;;;;;;;;;4953682;29;20031;-63
2023/11/04 03:26:27;;;;;;;1.23;0.60;;;;;;;;;;4937727;29;20126;-62
2023/11/04 03:28:53;;;;;;;0.80;0.60;;;;;;;;;;4954994;28;20031;-62
2023/11/04 03:31:18;;;;;;;0.73;0.70;;;;;;;;;;4957489;29;20031;-63
2023/11/04 03:33:43;;;;;;;0.63;0.63;;;;;;;;;;4958515;29;20027;-64
2023/11/04 03:36:10;;;;;;;0.68;0.68;;;;;;;;;;4959018;29;20023;-64
2023/11/04 03:38:35;;;;;;;0.73;0.73;;;;;;;;;;4958403;29;20086;-62
2023/11/04 03:41:01;;;;;;;0.52;0.52;;;;;;;;;;4956918;29;20034;-61
2023/11/04 03:43:26;;;;;;;0.50;0.50;;;;;;;;;;4958236;29;20118;-61
2023/11/04 03:45:52;;;;;;;0.52;0.52;;;;;;;;;;4956931;29;20039;-62
2023/11/04 03:48:17;;;;;;;0.88;0.50;;;;;;;;;;4957084;28;20035;-62
2023/11/04 03:50:43;;;;;;;0.55;0.55;;;;;;;;;;4940833;29;20069;-61
2023/11/04 03:53:08;;;;;;;0.55;0.38;;;;;;;;;;4957106;29;20032;-61
2023/11/04 03:55:35;;;;;;;1.15;0.57;;;;;;;;;;4958361;29;20030;-64
2023/11/04 03:58:00;;;;;;;0.50;0.43;;;;;;;;;;4958013;29;20395;-64
2023/11/04 04:00:26;;;;;;;0.70;0.70;;;;;;;;;;4956639;29;20043;-61
2023/11/04 04:02:51;;;;;;;0.63;0.55;;;;;;;;;;4958152;29;20050;-64
2023/11/04 04:05:17;;;;;;;0.98;0.70;;;;;;;;;;4958310;29;20031;-66
2023/11/04 04:07:43;;;;;;;1.85;0.77;;;;;;;;;;4957857;29;20035;-61
2023/11/04 04:10:32;;;;;;;0.45;0.45;;;;;;;;;;4957884;29;20037;-62
2023/11/04 04:12:57;;;;;;;1.50;0.80;;;;;;;;;;4956342;29;20494;-64
2023/11/04 04:15:23;;;;;;;0.88;0.57;;;;;;;;;;4956721;29;20023;-64
2023/11/04 04:17:49;;;;;;;0.70;0.57;;;;;;;;;;4956839;29;20074;-62
2023/11/04 04:20:17;;;;;;;1.00;0.70;;;;;;;;;;4957826;29;20034;-64
2023/11/04 04:22:42;;;;;;;0.70;0.70;;;;;;;;;;4957939;29;20483;-64
2023/11/04 04:25:09;;;;;;;0.47;0.47;;;;;;;;;;4957710;29;20042;-64
2023/11/04 04:27:35;;;;;;;0.57;0.57;;;;;;;;;;4957730;29;20391;-64
2023/11/04 04:30:01;;;;;;;0.47;0.47;;;;;;;;;;4957857;29;20034;-72
2023/11/04 04:32:26;;;;;;;0.93;0.60;;;;;;;;;;4957209;29;20439;-64
2023/11/04 04:34:52;;;;;;;0.65;0.57;;;;;;;;;;4957727;29;20039;-64
2023/11/04 04:37:17;;;;;;;0.40;0.40;;;;;;;;;;4957558;29;20050;-63
2023/11/04 04:39:45;;;;;;;0.50;0.50;;;;;;;;;;4956535;29;20027;-63
2023/11/04 04:42:10;;;;;;;0.50;0.50;;;;;;;;;;4957250;28;20082;-63
2023/11/04 04:44:37;;;;;;;0.60;0.50;;;;;;;;;;4956228;29;20118;-64
2023/11/04 04:47:02;;;;;;;1.05;0.60;;;;;;;;;;4956296;29;20027;-64
2023/11/04 04:49:28;;;;;;;0.60;0.60;;;;;;;;;;4957166;28;20042;-64
2023/11/04 04:51:54;;;;;;;1.35;0.80;;;;;;;;;;4955611;29;20045;-65
2023/11/04 04:54:19;;;;;;;0.50;0.50;;;;;;;;;;4955884;29;20074;-66
2023/11/04 04:56:46;;;;;;;0.50;0.50;;;;;;;;;;4956700;29;20082;-62
2023/11/04 04:59:11;;;;;;;1.30;0.60;;;;;;;;;;4956466;29;20042;-62
2023/11/04 05:01:38;;;;;;;0.63;0.63;;;;;;;;;;4956189;29;20059;-62
2023/11/04 05:04:03;;;;;;;0.75;0.65;;;;;;;;;;4956351;29;20035;-62
2023/11/04 05:06:29;;;;;;;0.75;0.75;;;;;;;;;;4956560;29;20023;-62
2023/11/04 05:08:55;;;;;;;0.63;0.57;;;;;;;;;;4953597;29;20031;-63
2023/11/04 05:11:21;;;;;;;0.70;0.70;;;;;;;;;;4954844;29;20038;-62
2023/11/04 05:13:46;;;;;;;0.52;0.52;;;;;;;;;;4956119;29;20012;-65
2023/11/04 05:16:12;;;;;;;1.40;0.60;;;;;;;;;;4956421;29;20027;-62
2023/11/04 05:18:37;;;;;;;0.88;0.65;;;;;;;;;;4956747;29;20090;-62
2023/11/04 05:21:03;;;;;;;0.88;0.70;;;;;;;;;;4955776;29;20062;-62
2023/11/04 05:23:29;;;;;;;1.00;0.68;;;;;;;;;;4956396;29;20039;-62
2023/11/04 05:25:55;;;;;;;0.60;0.60;;;;;;;;;;4955459;29;20031;-62
2023/11/04 05:28:21;;;;;;;0.90;0.60;;;;;;;;;;4954097;29;20031;-61
2023/11/04 05:30:46;;;;;;;0.98;0.98;;;;;;;;;;4955252;29;20031;-62
2023/11/04 05:33:12;;;;;;;0.82;0.82;;;;;;;;;;4955070;29;20024;-62
2023/11/04 05:35:37;;;;;;;0.88;0.80;;;;;;;;;;4955219;29;20042;-61
2023/11/04 05:38:03;;;;;;;1.20;0.80;;;;;;;;;;4954754;29;20086;-61
2023/11/04 05:40:28;;;;;;;0.70;0.70;;;;;;;;;;4954944;29;20035;-61
2023/11/04 05:42:57;;;;;;;1.27;0.90;;;;;;;;;;4954457;29;20693;-61
2023/11/04 05:45:24;;;;;;;1.10;1.00;;;;;;;;;;4952580;29;20392;-61
2023/11/04 05:47:49;;;;;;;0.90;0.90;;;;;;;;;;4954612;29;20035;-62
2023/11/04 05:50:15;;;;;;;1.10;0.93;;;;;;;;;;4987909;28;20060;-62
2023/11/04 05:52:42;;;;;;;1.00;1.00;;;;;;;;;;4993753;28;20030;-62
2023/11/04 05:55:08;;;;;;;1.42;0.90;;;;;;;;;;4993829;28;20037;-62
2023/11/04 05:57:34;;;;;;;1.70;1.00;;;;;;;;;;4976834;28;20477;-62
2023/11/04 06:00:04;;;;;;;1.25;1.00;;;;;;;;;;4994726;28;20034;-62
2023/11/04 06:02:30;;;;;;;1.83;0.82;;;;;;;;;;4977148;28;20067;-60
2023/11/04 06:04:56;;;;;;;1.83;1.50;;;;;;;;;;4994781;28;20390;-62
2023/11/04 06:07:21;;;;;;;0.95;0.75;;;;;;;;;;4976881;28;20100;-62
2023/11/04 06:09:46;;;;;;;1.40;1.10;;;;;;;;;;4994643;28;20451;-62
2023/11/04 06:12:14;;;;;;;1.20;1.02;;;;;;;;;;4976853;28;20030;-62
2023/11/04 06:14:40;;;;;;;0.88;0.88;;;;;;;;;;4994161;28;20031;-62
2023/11/04 06:17:06;;;;;;;2.45;1.00;;;;;;;;;;4976870;28;20034;-58
2023/11/04 06:19:31;;;;;;;0.77;0.77;;;;;;;;;;4994617;28;20038;-61
2023/11/04 06:21:57;;;;;;;1.58;1.17;;;;;;;;;;4976997;28;20036;-59
2023/11/04 06:24:22;;;;;;;1.90;1.80;;;;;;;;;;4977249;28;20474;-61
2023/11/04 06:26:48;;;;;;;1.98;1.77;;;;;;;;;;4994047;28;20080;-61
2023/11/04 06:29:13;;;;;;;1.52;1.42;;;;;;;;;;4976796;28;20030;-62
2023/11/04 06:31:38;;;;;;;1.17;1.10;;;;;;;;;;4994385;28;20026;-63
2023/11/04 06:34:05;;;;;;;1.13;1.02;;;;;;;;;;4994486;28;20023;-62
2023/11/04 06:36:32;;;;;;;1.02;0.98;;;;;;;;;;4994521;28;20074;-61
2023/11/04 06:38:58;;;;;;;1.33;1.23;;;;;;;;;;4976781;28;20057;-63
2023/11/04 06:41:23;;;;;;;1.10;0.95;;;;;;;;;;4994277;28;20466;-61
2023/11/04 06:43:50;;;;;;;1.20;1.10;;;;;;;;;;4994470;28;20458;-63
2023/11/04 06:46:15;;;;;;;1.25;1.02;;;;;;;;;;4993980;28;20490;-72
2023/11/04 06:48:41;;;;;;;1.27;1.17;;;;;;;;;;4976384;28;20120;-63
2023/11/04 06:51:07;;;;;;;1.00;1.00;;;;;;;;;;4993889;28;20050;-63
2023/11/04 06:53:33;;;;;;;1.08;0.98;;;;;;;;;;4994523;28;20462;-70
2023/11/04 06:56:00;;;;;;;2.03;1.10;;;;;;;;;;4994069;28;20034;-65
2023/11/04 06:58:29;;;;;;;1.73;1.33;;;;;;;;;;4993224;28;20030;-65
2023/11/04 07:00:54;;;;;;;1.63;1.50;;;;;;;;;;4976289;28;20037;-65
2023/11/04 07:03:22;;;;;;;1.40;1.30;;;;;;;;;;4993788;28;20422;-65
2023/11/04 07:05:47;;;;;;;1.95;1.00;;;;;;;;;;4994705;28;20092;-66
2023/11/04 07:08:14;;;;;;;0.80;0.80;;;;;;;;;;4997323;28;20030;-64
2023/11/04 07:10:42;;;;;;;1.38;1.27;;;;;;;;;;4997433;28;20030;-63
2023/11/04 07:13:11;;;;;;;1.48;1.05;;;;;;;;;;4979818;28;20118;-64
2023/11/04 07:15:37;;;;;;;1.00;0.93;;;;;;;;;;4979152;28;20027;-67
2023/11/04 07:18:07;;;;;;;0.63;0.63;;;;;;;;;;4996463;28;20098;-66
2023/11/04 07:20:34;;;;;;;3.10;0.88;;;;;;;;;;4997029;28;20117;-66
2023/11/04 07:22:59;;;;;;;1.27;0.98;;;;;;;;;;4997170;28;20034;-66
2023/11/04 07:25:24;;;;;;;1.63;0.98;;;;;;;;;;4996671;28;20391;-65
2023/11/04 07:27:50;;;;;;;3.05;1.25;;;;;;;;;;4978635;28;20026;-66
2023/11/04 07:30:15;;;;;;;1.25;1.17;;;;;;;;;;4978323;28;20046;-66
2023/11/04 07:32:41;;;;;;;1.10;1.00;;;;;;;;;;4995773;28;20030;-66
2023/11/04 07:35:07;;;;;;;1.50;1.30;;;;;;;;;;4996033;28;20041;-66
2023/11/04 07:37:32;;;;;;;1.35;1.27;;;;;;;;;;4995640;28;20026;-66
2023/11/04 07:39:58;;;;;;;1.17;1.08;;;;;;;;;;4962262;28;20379;-66
2023/11/04 07:42:23;;;;;;;3.50;1.70;;;;;;;;;;4995997;28;20382;-66
2023/11/04 07:44:49;;;;;;;1.48;1.38;;;;;;;;;;4995954;28;20030;-66
2023/11/04 07:47:14;;;;;;;1.70;1.60;;;;;;;;;;4995852;28;20406;-66
2023/11/04 07:49:40;;;;;;;2.75;1.60;;;;;;;;;;4995718;28;20442;-65
2023/11/04 07:52:06;;;;;;;2.33;2.13;;;;;;;;;;4978277;28;20042;-65
2023/11/04 07:54:31;;;;;;;2.40;2.00;;;;;;;;;;4995681;28;20082;-67
2023/11/04 07:56:56;;;;;;;2.78;2.05;;;;;;;;;;4995625;28;20470;-66
2023/11/04 07:59:22;;;;;;;2.22;1.70;;;;;;;;;;4995673;28;20486;-66
2023/11/04 08:01:47;;;;;;;4.05;1.80;;;;;;;;;;4995269;28;20023;-66
2023/11/04 08:04:13;;;;;;;2.58;2.38;;;;;;;;;;4995526;28;20463;-68
2023/11/04 08:06:38;;;;;;;2.58;2.03;;;;;;;;;;4995437;28;20030;-68
2023/11/04 08:09:04;;;;;;;3.42;2.30;;;;;;;;;;4995433;28;20030;-68
2023/11/04 08:11:30;;;;;;;3.45;2.30;;;;;;;;;;4995281;28;20034;-68
2023/11/04 08:13:55;;;;;;;3.47;2.35;;;;;;;;;;4977867;28;20488;-69
2023/11/04 08:16:20;;;;;;;2.63;2.42;;;;;;;;;;4994709;28;20474;-68
2023/11/04 08:18:46;;;;;;;2.08;1.88;;;;;;;;;;4995250;28;20466;-68
2023/11/04 08:21:13;;;;;;;3.40;2.35;;;;;;;;;;4977713;28;20536;-68
2023/11/04 08:23:39;;;;;;;4.30;2.67;;;;;;;;;;4994978;28;20412;-68
2023/11/04 08:26:05;;;;;;;2.70;2.50;;;;;;;;;;4995082;28;20090;-68
2023/11/04 08:28:31;;;;;;;3.70;2.75;;;;;;;;;;4995399;28;20037;-68
2023/11/04 08:30:57;;;;;;;3.90;2.42;;;;;;;;;;4995316;28;20022;-69
2023/11/04 08:33:23;;;;;;;3.67;2.75;;;;;;;;;;4995419;28;20031;-69
2023/11/04 08:35:48;;;;;;;3.83;2.63;;;;;;;;;;4994721;28;20098;-69
2023/11/04 08:38:14;;;;;;;4.15;2.38;;;;;;;;;;4994931;28;20026;-69
2023/11/04 08:40:39;;;;;;;3.45;2.78;;;;;;;;;;4994637;28;20030;-69
2023/11/04 08:43:05;;;;;;;3.90;2.72;;;;;;;;;;4994371;28;20037;-69
2023/11/04 08:45:30;;;;;;;3.03;2.78;;;;;;;;;;4994769;28;20043;-69
2023/11/04 08:47:57;;;;;;;2.60;2.40;;;;;;;;;;4977332;28;20038;-69
2023/11/04 08:50:22;;;;;;;4.38;2.88;;;;;;;;;;4994435;28;20271;-69
2023/11/04 08:52:48;;;;;;;4.30;3.25;;;;;;;;;;4994616;28;20474;-69
2023/11/04 08:55:13;;;;;;;4.18;3.00;;;;;;;;;;4977171;28;20033;-69
2023/11/04 08:57:39;;;;;;;2.58;2.20;;;;;;;;;;4994565;28;20043;-69
2023/11/04 09:00:06;;;;;;;3.85;3.05;;;;;;;;;;4994517;28;20038;-67
2023/11/04 09:02:32;;;;;;;3.92;3.00;;;;;;;;;;4994484;28;20105;-67
2023/11/04 09:05:00;;;;;;;2.78;2.55;;;;;;;;;;4977142;28;20039;-67
2023/11/04 09:07:26;;;;;;;4.07;2.80;;;;;;;;;;4994446;28;20050;-67
2023/11/04 09:09:51;;;;;;;3.80;2.22;;;;;;;;;;4994222;28;20034;-67
2023/11/04 09:12:17;;;;;;;3.67;2.53;;;;;;;;;;4994342;28;20041;-68
2023/11/04 09:14:43;;;;;;;3.08;2.63;;;;;;;;;;4994200;28;20010;-66
2023/11/04 09:17:08;;;;;;;1.85;1.75;;;;;;;;;;4993898;28;20057;-68
2023/11/04 09:19:34;;;;;;;2.60;2.40;;;;;;;;;;4976937;28;20030;-63
2023/11/04 09:21:59;;;;;;;2.25;1.98;;;;;;;;;;4994129;28;20085;-66
2023/11/04 09:24:28;;;;;;;3.83;2.60;;;;;;;;;;4994389;28;20049;-64
2023/11/04 09:26:53;;;;;;;3.47;2.85;;;;;;;;;;4994691;28;20045;-62
2023/11/04 09:29:18;;;;;;;4.85;2.67;;;;;;;;;;4994271;28;20030;-62
2023/11/04 09:31:43;;;;;;;3.63;2.42;;;;;;;;;;4976489;28;20038;-61
2023/11/04 09:34:10;;;;;;;2.45;1.90;;;;;;;;;;4976453;28;20110;-73
2023/11/04 09:36:35;;;;;;;4.18;2.85;;;;;;;;;;4993851;28;20040;-65
2023/11/04 09:39:01;;;;;;;3.50;2.33;;;;;;;;;;4976326;28;20019;-63
2023/11/04 09:41:26;;;;;;;9.55;3.20;;;;;;;;;;4976122;28;20022;-64
2023/11/04 09:43:52;;;;;;;3.45;2.33;;;;;;;;;;4960202;28;20510;-61
2023/11/04 09:46:18;;;;;;;3.75;2.33;;;;;;;;;;4993404;28;20040;-64
2023/11/04 09:48:43;;;;;;;2.70;2.10;;;;;;;;;;4993453;28;20042;-67
2023/11/04 09:51:14;;;;;;;4.68;2.38;;;;;;;;;;4993519;28;20034;-63
2023/11/04 09:53:49;;;;;;;2.80;2.22;;;;;;;;;;4993496;28;20030;-64
2023/11/04 09:56:14;;;;;;;2.28;2.08;;;;;;;;;;4993452;28;20035;-64
2023/11/04 09:58:39;;;;;;;2.90;1.95;;;;;;;;;;4976114;28;20113;-63
2023/11/04 10:01:05;;;;;;;2.17;1.98;;;;;;;;;;4993390;28;20109;-63
2023/11/04 10:03:30;;;;;;;2.58;2.22;;;;;;;;;;4993356;28;20037;-64
2023/11/04 10:05:56;;;;;;;4.32;2.63;;;;;;;;;;4992655;28;20058;-63
2023/11/04 10:08:23;;;;;;;4.40;2.00;;;;;;;;;;4960426;28;20125;-64
2023/11/04 10:10:48;;;;;;;3.67;1.80;;;;;;;;;;4994306;28;20042;-64
2023/11/04 10:13:14;;;;;;;3.40;2.15;;;;;;;;;;4994297;28;20093;-64
2023/11/04 10:15:39;;;;;;;1.90;1.80;;;;;;;;;;4994613;28;20030;-64
2023/11/04 10:18:06;;;;;;;4.93;1.63;;;;;;;;;;4960926;28;20042;-64
2023/11/04 10:20:31;;;;;;;2.25;2.03;;;;;;;;;;4994992;28;20493;-63
2023/11/04 10:22:56;;;;;;;3.60;1.83;;;;;;;;;;4994010;28;20026;-63
2023/11/04 10:25:22;;;;;;;2.20;1.80;;;;;;;;;;4994157;28;20031;-63
2023/11/04 10:27:47;;;;;;;3.47;1.80;;;;;;;;;;4994485;28;20363;-63
2023/11/04 10:30:13;;;;;;;2.20;2.00;;;;;;;;;;4994105;28;20039;-63
2023/11/04 10:32:38;;;;;;;3.45;1.90;;;;;;;;;;4994701;28;20030;-63
2023/11/04 10:35:07;;;;;;;2.53;1.70;;;;;;;;;;4976731;28;20419;-63
2023/11/04 10:37:33;;;;;;;2.25;2.05;;;;;;;;;;4994682;28;20035;-64
2023/11/04 10:40:05;;;;;;;1.67;1.50;;;;;;;;;;4996772;28;20026;-63
2023/11/04 10:42:31;;;;;;;1.80;1.70;;;;;;;;;;4998098;28;20038;-63
2023/11/04 10:44:58;;;;;;;2.60;1.80;;;;;;;;;;4980874;28;20115;-63
2023/11/04 10:47:24;;;;;;;2.13;1.85;;;;;;;;;;4998000;28;20034;-63
2023/11/04 10:50:12;;;;;;;1.42;1.30;;;;;;;;;;4998292;28;20038;-63
2023/11/04 10:52:44;;;;;;;2.10;1.95;;;;;;;;;;4980830;28;20045;-63
2023/11/04 10:55:12;;;;;;;1.73;1.63;;;;;;;;;;4964647;28;20031;-63
2023/11/04 10:57:44;;;;;;;1.60;1.48;;;;;;;;;;4998172;28;20097;-63
2023/11/04 11:00:23;;;;;;;1.80;1.40;;;;;;;;;;4980090;28;20137;-63
2023/11/04 11:02:51;;;;;;;1.90;1.40;;;;;;;;;;4997749;28;20557;-64
2023/11/04 11:05:22;;;;;;;2.85;1.52;;;;;;;;;;4997707;28;20014;-63
2023/11/04 11:07:48;;;;;;;1.52;1.23;;;;;;;;;;4998149;28;20022;-63
2023/11/04 11:10:19;;;;;;;1.75;1.15;;;;;;;;;;4997512;28;20389;-64
2023/11/04 11:13:03;;;;;;;1.65;1.27;;;;;;;;;;4980088;28;20030;-63
2023/11/04 11:15:30;;;;;;;3.50;1.30;;;;;;;;;;4997628;28;20114;-63
2023/11/04 11:17:56;;;;;;;2.33;1.17;;;;;;;;;;4997476;28;20443;-63
2023/11/04 11:20:27;;;;;;;1.20;1.10;;;;;;;;;;4997482;28;20124;-63
2023/11/04 11:22:52;;;;;;;;;;;;;;;;;;4997621;28;20037;-64
2023/11/04 11:25:28;;;;;;;1.50;1.25;;;;;;;;;;4997075;28;20305;-63
2023/11/04 11:27:55;;;;;;;1.27;1.17;;;;;;;;;;4997230;28;20034;-63
2023/11/04 11:30:21;;;;;;;2.55;1.30;;;;;;;;;;4979644;28;20022;-63
2023/11/04 11:32:46;;;;;;;1.70;1.15;;;;;;;;;;4997145;28;20037;-63
2023/11/04 11:35:12;;;;;;;1.52;1.25;;;;;;;;;;4997090;28;20034;-63
2023/11/04 11:37:37;;;;;;;1.83;1.30;;;;;;;;;;4997072;28;20030;-63
2023/11/04 11:40:13;;;;;;;1.92;1.50;;;;;;;;;;4997288;28;20377;-63
2023/11/04 11:42:38;;;;;;;1.02;0.90;;;;;;;;;;4997011;28;20026;-63
2023/11/04 11:45:05;;;;;;;2.33;1.42;;;;;;;;;;4997051;28;20034;-63
2023/11/04 11:47:31;;;;;;;1.60;1.17;;;;;;;;;;4979540;28;20026;-63
2023/11/04 11:49:56;;;;;;;2.28;1.40;;;;;;;;;;4996671;28;20034;-63
2023/11/04 11:52:23;;;;;;;1.60;1.10;;;;;;;;;;4996059;28;20526;-63
2023/11/04 11:54:48;;;;;;;1.48;1.15;;;;;;;;;;4996776;28;20014;-63
2023/11/04 11:57:14;;;;;;;1.33;0.93;;;;;;;;;;4996917;28;20165;-63
2023/11/04 11:59:41;;;;;;;1.63;1.30;;;;;;;;;;4996730;28;20033;-63
2023/11/04 12:02:07;;;;;;;1.10;0.95;;;;;;;;;;4996723;28;20034;-63
2023/11/04 12:04:33;;;;;;;2.20;1.10;;;;;;;;;;4996640;28;20042;-63
2023/11/04 12:07:00;;;;;;;2.92;1.02;;;;;;;;;;4997011;28;20030;-63
2023/11/04 12:09:25;;;;;;;1.38;1.00;;;;;;;;;;4996451;28;20035;-63
2023/11/04 12:11:54;;;;;;;1.40;1.00;;;;;;;;;;4996357;28;20496;-63
2023/11/04 12:14:21;;;;;;;1.40;1.00;;;;;;;;;;4996944;28;20540;-63
2023/11/04 12:16:46;;;;;;;1.40;1.17;;;;;;;;;;4996665;28;20027;-63
2023/11/04 12:19:12;;;;;;;1.98;1.40;;;;;;;;;;4978934;28;20038;-63
2023/11/04 12:21:38;;;;;;;1.40;1.02;;;;;;;;;;4996230;28;20057;-61
2023/11/04 12:24:04;;;;;;;1.08;0.98;;;;;;;;;;4996248;28;20046;-61
2023/11/04 12:26:30;;;;;;;1.77;1.10;;;;;;;;;;4994975;28;20034;-61
2023/11/04 12:28:56;;;;;;;1.45;1.08;;;;;;;;;;4996125;28;20026;-61
2023/11/04 12:31:22;;;;;;;1.73;1.20;;;;;;;;;;4995517;28;20121;-61
2023/11/04 12:33:50;;;;;;;1.60;0.90;;;;;;;;;;4978542;28;20069;-61
2023/11/04 12:36:16;;;;;;;1.13;0.98;;;;;;;;;;4978379;28;20393;-61
2023/11/04 12:38:42;;;;;;;1.40;1.17;;;;;;;;;;4995908;28;20019;-61
2023/11/04 12:41:11;;;;;;;1.00;0.90;;;;;;;;;;4978402;28;20042;-61
2023/11/04 12:43:38;;;;;;;1.40;1.10;;;;;;;;;;4995862;28;20034;-61
2023/11/04 12:46:04;;;;;;;1.55;1.20;;;;;;;;;;4995785;28;20069;-61
2023/11/04 12:48:29;;;;;;;1.70;1.48;;;;;;;;;;4995667;28;20026;-61
2023/11/04 12:50:55;;;;;;;1.95;1.38;;;;;;;;;;4995668;28;20470;-61
2023/11/04 12:53:23;;;;;;;2.03;1.40;;;;;;;;;;4995782;28;20485;-61
2023/11/04 12:55:50;;;;;;;3.60;1.02;;;;;;;;;;4995070;28;20034;-61
2023/11/04 12:58:16;;;;;;;1.88;1.15;;;;;;;;;;4995508;28;20022;-61
2023/11/04 13:00:41;;;;;;;1.60;1.00;;;;;;;;;;4995552;28;20045;-61
2023/11/04 13:03:06;;;;;;;1.67;1.00;;;;;;;;;;4993705;28;20080;-61
2023/11/04 13:05:32;;;;;;;1.08;0.73;;;;;;;;;;4995460;28;20088;-61
2023/11/04 13:07:58;;;;;;;2.20;1.20;;;;;;;;;;4978747;28;20097;-61
2023/11/04 13:10:23;;;;;;;1.30;0.98;;;;;;;;;;4994693;28;20042;-62
2023/11/04 13:12:49;;;;;;;1.15;1.00;;;;;;;;;;4978437;28;20034;-61
2023/11/04 13:15:17;;;;;;;2.42;1.25;;;;;;;;;;4995739;28;20098;-61
2023/11/04 13:17:42;;;;;;;1.52;1.30;;;;;;;;;;4994514;28;20018;-61
2023/11/04 13:20:09;;;;;;;1.10;0.90;;;;;;;;;;4994886;28;20485;-61
2023/11/04 13:22:34;;;;;;;2.10;1.23;;;;;;;;;;4995685;28;20038;-61
2023/11/04 13:24:59;;;;;;;3.05;1.27;;;;;;;;;;4995368;28;20031;-61
2023/11/04 13:27:25;;;;;;;2.40;1.42;;;;;;;;;;4995097;28;20061;-61
2023/11/04 13:29:54;;;;;;;2.97;1.30;;;;;;;;;;4994525;28;20113;-61
2023/11/04 13:32:20;;;;;;;1.85;1.67;;;;;;;;;;4977852;28;20030;-61
2023/11/04 13:34:46;;;;;;;10.50;4.20;;;;;;;;;;4995185;28;20036;-61
2023/11/04 13:37:11;;;;;;;11.70;4.70;;;;;;;;;;4994879;28;20073;-61
2023/11/04 13:39:37;;;;;;;9.50;3.67;;;;;;;;;;4995115;28;20022;-61
2023/11/04 13:42:02;;;;;;;1.80;1.50;;;;;;;;;;4994775;28;20489;-60
2023/11/04 13:44:27;;;;;;;1.90;1.27;;;;;;;;;;4995027;28;20078;-61
2023/11/04 13:46:53;;;;;;;1.42;1.27;;;;;;;;;;4995018;28;20032;-61
2023/11/04 13:49:18;;;;;;;2.92;1.10;;;;;;;;;;4977112;28;20046;-61
2023/11/04 13:51:44;;;;;;;1.95;1.00;;;;;;;;;;4994611;28;20058;-61
2023/11/04 13:54:11;;;;;;;2.50;1.40;;;;;;;;;;4994917;28;20466;-61
2023/11/04 13:56:38;;;;;;;1.50;1.33;;;;;;;;;;4994410;28;20462;-61
2023/11/04 13:59:08;;;;;;;2.00;1.45;;;;;;;;;;4994844;28;20466;-61
2023/11/04 14:01:33;;;;;;;11.65;5.63;;;;;;;;;;4994256;28;20485;-61
2023/11/04 14:04:01;;;;;;;11.75;6.53;;;;;;;;;;4994501;28;20054;-61
2023/11/04 14:06:26;;;;;;;12.40;6.40;;;;;;;;;;4994482;28;20046;-61
2023/11/04 14:08:51;;;;;;;12.40;7.85;;;;;;;;;;4993977;28;20034;-61
2023/11/04 14:11:17;;;;;;;9.98;4.80;;;;;;;;;;4994087;28;20534;-61
2023/11/04 14:13:42;;;;;;;3.47;3.03;;;;;;;;;;4993799;28;20490;-61
2023/11/04 14:16:07;;;;;;;3.25;2.92;;;;;;;;;;4994227;28;20502;-61
2023/11/04 14:18:34;;;;;;;3.40;2.83;;;;;;;;;;4993905;28;20046;-61
2023/11/04 14:20:59;;;;;;;7.55;4.70;;;;;;;;;;4994221;28;20033;-61
2023/11/04 14:23:24;;;;;;;8.75;5.32;;;;;;;;;;4994371;28;20107;-61
2023/11/04 14:25:50;;;;;;;9.52;5.43;;;;;;;;;;4976925;28;20058;-61
2023/11/04 14:28:15;;;;;;;9.88;5.70;;;;;;;;;;4993892;28;20030;-61
2023/11/04 14:30:41;;;;;;;7.72;4.57;;;;;;;;;;4994135;28;20031;-61
2023/11/04 14:33:08;;;;;;;6.03;4.05;;;;;;;;;;5009612;23;20137;-63
2023/11/04 14:35:34;;;;;;;5.88;4.15;;;;;;;;;;4994165;28;20026;-64
2023/11/04 14:38:00;;;;;;;8.07;5.60;;;;;;;;;;5008820;28;20034;-64